San Rafael, California
Current Conditions -  °F | °C
As of 11:15 PM on Saturday 22 Nov 2014 (Local Time) from KDVO Reporting Station
Clear Clear  
Wind Chill: 55°   Ceiling: Unl
Heat Index: 55°   Visibility: NA
Dew Point: 48°   Wind: 12mph
Humidity: 77%   Direction: 320°NW
Pressure: 30.26"   Gusts: NA
Location:  37.97°N, 122.53°W
Report Text: KDVO 230715Z AUTO 32010KT CLR 13/09 A3026 RMK AO2
Loading
Personal Weather Stations






























Interactive Weather Map New forecast layout! Learn more

10-Day Weather Forecast

Advertisements
Track Severe Weather on mobile